Time;durP1;ratioP1;P1;durP2;ratioP2;P2;SDS_P1;SDS_P2;PMS_P1;PMS_P2;Temp;Humidity;BMP_temperature;BMP_pressure;BME280_temperature;BME280_humidity;BME280_pressure;Samples;Min_cycle;Max_cycle;Signal;HPM_P1;HPM_P2
2022/07/21 00:02:19;;;;;;;;;;;28.90;73.40;;;;;;5093831;28;19924;-66
2022/07/21 00:04:45;;;;;;;;;;;28.90;73.10;;;;;;5073842;28;19984;-66
2022/07/21 00:07:10;;;;;;;;;;;28.80;73.30;;;;;;5074228;28;19927;-66
2022/07/21 00:09:36;;;;;;;;;;;28.70;73.20;;;;;;5093663;28;20366;-67
2022/07/21 00:12:05;;;;;;;;;;;28.60;73.00;;;;;;5092889;28;19920;-66
2022/07/21 00:14:30;;;;;;;;;;;28.90;72.10;;;;;;5094429;28;19924;-66
2022/07/21 00:16:56;;;;;;;;;;;29.00;73.40;;;;;;5091820;28;19995;-68
2022/07/21 00:19:22;;;;;;;;;;;28.90;73.40;;;;;;5093293;28;19967;-66
2022/07/21 00:21:47;;;;;;;;;;;28.70;73.10;;;;;;5094480;28;20011;-66
2022/07/21 00:24:13;;;;;;;;;;;29.00;73.50;;;;;;5076227;28;19920;-65
2022/07/21 00:26:38;;;;;;;;;;;28.80;73.30;;;;;;5070511;28;19920;-66
2022/07/21 00:29:04;;;;;;;;;;;28.90;73.40;;;;;;5093486;28;19920;-66
2022/07/21 00:31:30;;;;;;;;;;;29.00;73.40;;;;;;5093306;28;19927;-66
2022/07/21 00:33:55;;;;;;;;;;;28.80;73.20;;;;;;5068303;28;20011;-66
2022/07/21 00:36:21;;;;;;;;;;;29.10;73.40;;;;;;5084255;28;20379;-66
2022/07/21 00:38:47;;;;;;;;;;;28.90;73.40;;;;;;5091763;28;20468;-67
2022/07/21 00:41:12;;;;;;;;;;;28.80;73.20;;;;;;5092547;28;19967;-66
2022/07/21 00:43:38;;;;;;;;;;;28.80;73.30;;;;;;5094192;28;20370;-66
2022/07/21 00:46:03;;;;;;;;;;;29.00;73.40;;;;;;5094080;28;20292;-66
2022/07/21 00:48:29;;;;;;;;;;;28.90;73.30;;;;;;5092316;28;20432;-66
2022/07/21 00:50:55;;;;;;;;;;;29.00;73.40;;;;;;5063921;28;19921;-66
2022/07/21 00:53:20;;;;;;;;;;;28.70;73.20;;;;;;5088174;28;19932;-66
2022/07/21 00:55:46;;;;;;;;;;;28.90;73.30;;;;;;5093155;28;19942;-68
2022/07/21 00:58:12;;;;;;;;;;;29.00;73.60;;;;;;5092545;28;20393;-66
2022/07/21 01:00:37;;;;;;;;;;;28.90;73.60;;;;;;5075969;28;20303;-67
2022/07/21 01:03:03;;;;;;;;;;;29.00;73.50;;;;;;5075247;28;19927;-68
2022/07/21 01:05:29;;;;;;;;;;;29.00;73.60;;;;;;5075456;28;19920;-67
2022/07/21 01:07:55;;;;;;;;;;;28.90;73.60;;;;;;5095230;28;19978;-64
2022/07/21 01:10:21;;;;;;;;;;;29.10;73.90;;;;;;5096397;28;20061;-61
2022/07/21 01:12:47;;;;;;;;;;;28.90;74.00;;;;;;5078209;28;20073;-61
2022/07/21 01:15:12;;;;;;;;;;;29.00;73.80;;;;;;5097971;28;19953;-62
2022/07/21 01:17:38;;;;;;;;;;;29.10;74.40;;;;;;5097928;28;19920;-61
2022/07/21 01:20:05;;;;;;;;;;;28.60;74.00;;;;;;5077984;28;19920;-61
2022/07/21 01:22:31;;;;;;;;;;;28.70;74.20;;;;;;5096780;28;20042;-61
2022/07/21 01:24:57;;;;;;;;;;;29.00;74.70;;;;;;5097378;28;20404;-62
2022/07/21 01:27:24;;;;;;;;;;;28.90;74.40;;;;;;5096389;28;19920;-61
2022/07/21 01:29:49;;;;;;;;;;;29.00;74.90;;;;;;5074669;28;20374;-62
2022/07/21 01:32:15;;;;;;;;;;;28.90;74.60;;;;;;5076614;28;19966;-62
2022/07/21 01:34:41;;;;;;;;;;;28.90;74.60;;;;;;5068894;28;19975;-61
2022/07/21 01:37:06;;;;;;;;;;;28.50;74.40;;;;;;5057747;28;20290;-61
2022/07/21 01:42:16;;;;;;;;;;;29.00;74.00;;;;;;5075330;28;19934;-61
2022/07/21 01:44:42;;;;;;;;;;;28.70;74.90;;;;;;5074834;28;20413;-61
2022/07/21 01:47:08;;;;;;;;;;;29.00;74.60;;;;;;5074541;28;20340;-61
2022/07/21 01:49:33;;;;;;;;;;;28.70;74.90;;;;;;5075796;28;19921;-67
2022/07/21 01:52:00;;;;;;;;;;;28.80;75.10;;;;;;5075511;28;19920;-66
2022/07/21 01:54:25;;;;;;;;;;;28.60;75.20;;;;;;5075898;28;20007;-66
2022/07/21 01:56:51;;;;;;;;;;;28.70;75.10;;;;;;5076428;28;19920;-62
2022/07/21 01:59:17;;;;;;;;;;;28.50;75.20;;;;;;5076904;28;19920;-61
2022/07/21 02:01:42;;;;;;;;;;;28.80;75.30;;;;;;5076000;28;19974;-62
2022/07/21 02:04:08;;;;;;;;;;;28.70;75.20;;;;;;5062961;28;19920;-61
2022/07/21 02:06:34;;;;;;;;;;;28.70;75.20;;;;;;5074270;28;19924;-61
2022/07/21 02:08:59;;;;;;;;;;;28.60;75.30;;;;;;5075562;28;19928;-61
2022/07/21 02:11:25;;;;;;;;;;;28.60;75.30;;;;;;5076992;28;19927;-61
2022/07/21 02:13:50;;;;;;;;;;;28.60;75.40;;;;;;5074254;28;20293;-62
2022/07/21 02:16:16;;;;;;;;;;;28.60;75.40;;;;;;5075192;28;20366;-61
2022/07/21 02:18:42;;;;;;;;;;;28.50;75.40;;;;;;5074741;28;19927;-61
2022/07/21 02:21:07;;;;;;;;;;;28.50;75.40;;;;;;5073314;28;19974;-66
2022/07/21 02:23:33;;;;;;;;;;;29.60;76.10;;;;;;5071971;28;19943;-66
2022/07/21 02:25:59;;;;;;;;;;;28.80;75.60;;;;;;5074953;28;20369;-66
2022/07/21 02:28:24;;;;;;;;;;;28.60;75.50;;;;;;5075145;28;19946;-61
2022/07/21 02:30:50;;;;;;;;;;;28.90;75.70;;;;;;5087801;28;19923;-61
2022/07/21 02:33:16;;;;;;;;;;;28.50;75.50;;;;;;5095633;28;19995;-61
2022/07/21 02:35:41;;;;;;;;;;;28.60;75.50;;;;;;5094653;28;20422;-61
2022/07/21 02:38:07;;;;;;;;;;;28.80;76.00;;;;;;5077349;28;20381;-62
2022/07/21 02:40:32;;;;;;;;;;;28.80;75.80;;;;;;5096353;28;19920;-62
2022/07/21 02:42:58;;;;;;;;;;;28.70;75.80;;;;;;5094672;28;19923;-61
2022/07/21 02:45:24;;;;;;;;;;;28.70;76.30;;;;;;5093371;28;20014;-61
2022/07/21 02:47:49;;;;;;;;;;;28.70;76.00;;;;;;5077603;28;19924;-61
2022/07/21 02:50:15;;;;;;;;;;;28.70;75.70;;;;;;5095874;28;19943;-61
2022/07/21 02:52:41;;;;;;;;;;;28.50;76.00;;;;;;5076732;28;19920;-66
2022/07/21 02:55:07;;;;;;;;;;;28.90;76.20;;;;;;5093369;28;19920;-66
2022/07/21 02:57:32;;;;;;;;;;;28.60;75.50;;;;;;5094745;28;19920;-65
2022/07/21 02:59:58;;;;;;;;;;;28.60;75.60;;;;;;5096002;28;20308;-61
2022/07/21 03:02:24;;;;;;;;;;;28.60;76.00;;;;;;5094349;28;19920;-61
2022/07/21 03:04:49;;;;;;;;;;;28.60;75.70;;;;;;5094876;28;20349;-60
2022/07/21 03:07:15;;;;;;;;;;;28.70;76.00;;;;;;5094332;28;19920;-61
2022/07/21 03:09:40;;;;;;;;;;;28.80;76.20;;;;;;5095803;28;19920;-61
2022/07/21 03:12:07;;;;;;;;;;;28.60;76.00;;;;;;5095783;28;20277;-61
2022/07/21 03:14:32;;;;;;;;;;;28.60;76.20;;;;;;5095683;28;19927;-61
2022/07/21 03:17:00;;;;;;;;;;;28.50;76.00;;;;;;5075899;28;20297;-61
2022/07/21 03:19:26;;;;;;;;;;;28.30;76.00;;;;;;5078077;28;19965;-61
2022/07/21 03:21:51;;;;;;;;;;;28.60;76.00;;;;;;5095110;28;19920;-61
2022/07/21 03:24:17;;;;;;;;;;;28.50;76.10;;;;;;5094203;28;19964;-61
2022/07/21 03:26:42;;;;;;;;;;;28.40;76.00;;;;;;5094803;28;20258;-61
2022/07/21 03:29:09;;;;;;;;;;;28.70;76.40;;;;;;5094671;28;19980;-61
2022/07/21 03:31:35;;;;;;;;;;;28.50;76.30;;;;;;5094523;28;20378;-61
2022/07/21 03:34:00;;;;;;;;;;;28.50;76.10;;;;;;5094932;28;19920;-62
2022/07/21 03:36:26;;;;;;;;;;;28.60;76.40;;;;;;5094490;28;19927;-62
2022/07/21 03:38:51;;;;;;;;;;;28.50;76.40;;;;;;5075509;28;19928;-61
2022/07/21 03:41:17;;;;;;;;;;;28.60;76.40;;;;;;5094891;28;19920;-61
2022/07/21 03:43:42;;;;;;;;;;;28.60;76.50;;;;;;5095144;28;19924;-61
2022/07/21 03:46:08;;;;;;;;;;;28.50;76.40;;;;;;5095008;28;19926;-61
2022/07/21 03:48:34;;;;;;;;;;;28.50;76.60;;;;;;5093329;28;19920;-61
2022/07/21 03:50:59;;;;;;;;;;;28.50;76.30;;;;;;5094471;28;19924;-61
2022/07/21 03:53:25;;;;;;;;;;;28.40;76.50;;;;;;5094957;28;19990;-62
2022/07/21 03:55:50;;;;;;;;;;;28.40;76.50;;;;;;5093984;28;19920;-61
2022/07/21 03:58:16;;;;;;;;;;;28.50;76.60;;;;;;5073479;28;19924;-69
2022/07/21 04:00:43;;;;;;;;;;;28.50;76.50;;;;;;5093068;28;20014;-66
2022/07/21 04:03:08;;;;;;;;;;;28.40;76.80;;;;;;5094831;28;19974;-66
2022/07/21 04:05:34;;;;;;;;;;;28.60;76.60;;;;;;5094382;28;19919;-61
2022/07/21 04:08:00;;;;;;;;;;;28.50;76.80;;;;;;5094554;28;19986;-62
2022/07/21 04:10:26;;;;;;;;;;;28.70;76.80;;;;;;5092495;28;20635;-61
2022/07/21 04:12:52;;;;;;;;;;;28.30;76.80;;;;;;5092774;28;20361;-61
2022/07/21 04:15:17;;;;;;;;;;;28.60;76.80;;;;;;5076474;28;19927;-61
2022/07/21 04:17:43;;;;;;;;;;;28.40;76.70;;;;;;5076206;28;19920;-61
2022/07/21 04:20:09;;;;;;;;;;;28.60;76.80;;;;;;5091066;28;20323;-62
2022/07/21 04:22:35;;;;;;;;;;;28.50;76.70;;;;;;5093008;28;20285;-61
2022/07/21 04:25:01;;;;;;;;;;;28.40;76.30;;;;;;5093297;28;19927;-61
2022/07/21 04:27:26;;;;;;;;;;;28.60;76.90;;;;;;5093501;28;19920;-61
2022/07/21 04:29:52;;;;;;;;;;;28.30;76.70;;;;;;5093127;28;19968;-61
2022/07/21 04:32:18;;;;;;;;;;;28.50;76.80;;;;;;5075953;28;20415;-61
2022/07/21 04:34:43;;;;;;;;;;;28.30;76.50;;;;;;5093896;28;19920;-61
2022/07/21 04:37:09;;;;;;;;;;;28.90;77.20;;;;;;5093576;28;19919;-61
2022/07/21 04:39:34;;;;;;;;;;;28.40;76.80;;;;;;5092434;28;19967;-61
2022/07/21 04:42:00;;;;;;;;;;;28.60;76.90;;;;;;5092318;28;19963;-63
2022/07/21 04:44:25;;;;;;;;;;;28.70;77.10;;;;;;5058080;28;19971;-64
2022/07/21 04:46:51;;;;;;;;;;;28.40;76.80;;;;;;5093826;28;20014;-61
2022/07/21 04:49:17;;;;;;;;;;;28.60;77.10;;;;;;5093901;28;19920;-62
2022/07/21 04:51:42;;;;;;;;;;;28.50;76.80;;;;;;5092158;28;19947;-66
2022/07/21 04:54:08;;;;;;;;;;;28.80;77.10;;;;;;5091579;28;20354;-62
2022/07/21 04:56:34;;;;;;;;;;;28.70;76.80;;;;;;5075505;28;19927;-62
2022/07/21 04:59:00;;;;;;;;;;;28.60;76.70;;;;;;5093471;28;19924;-62
2022/07/21 05:01:25;;;;;;;;;;;28.80;77.20;;;;;;5092160;28;19920;-62
2022/07/21 05:03:51;;;;;;;;;;;28.60;77.00;;;;;;5093361;28;20052;-62
2022/07/21 05:06:16;;;;;;;;;;;28.40;76.70;;;;;;5093499;28;20366;-62
2022/07/21 05:08:42;;;;;;;;;;;28.40;76.80;;;;;;5093091;28;19924;-62
2022/07/21 05:11:08;;;;;;;;;;;28.50;76.70;;;;;;5093976;28;19923;-62
2022/07/21 05:13:33;;;;;;;;;;;28.70;76.80;;;;;;5074918;28;19942;-62
2022/07/21 05:15:59;;;;;;;;;;;28.80;77.00;;;;;;5092179;28;19930;-62
2022/07/21 05:18:24;;;;;;;;;;;28.80;77.10;;;;;;5074009;28;19928;-62
2022/07/21 05:20:50;;;;;;;;;;;28.60;76.90;;;;;;5090486;28;19973;-62
2022/07/21 05:23:16;;;;;;;;;;;28.40;76.70;;;;;;5093858;28;19920;-64
2022/07/21 05:25:41;;;;;;;;;;;28.70;77.00;;;;;;5092758;28;19920;-62
2022/07/21 05:28:07;;;;;;;;;;;28.40;76.90;;;;;;5091835;28;20392;-68
2022/07/21 05:30:33;;;;;;;;;;;28.70;76.80;;;;;;5092948;28;19959;-67
2022/07/21 05:32:58;;;;;;;;;;;28.70;77.10;;;;;;5093713;28;19965;-66
2022/07/21 05:35:24;;;;;;;;;;;28.60;77.00;;;;;;5092375;28;20374;-66
2022/07/21 05:37:49;;;;;;;;;;;28.80;77.30;;;;;;5075223;28;19924;-67
2022/07/21 05:40:15;;;;;;;;;;;28.60;77.00;;;;;;5090323;28;20006;-66
2022/07/21 05:42:41;;;;;;;;;;;28.60;77.10;;;;;;5075540;28;19965;-68
2022/07/21 05:45:07;;;;;;;;;;;28.70;77.10;;;;;;5093645;28;20431;-66
2022/07/21 05:47:32;;;;;;;;;;;28.60;76.90;;;;;;5092748;28;20250;-66
2022/07/21 05:49:58;;;;;;;;;;;28.80;77.20;;;;;;5090029;28;19927;-66
2022/07/21 05:52:24;;;;;;;;;;;28.60;77.20;;;;;;5093599;28;19927;-66
2022/07/21 05:54:49;;;;;;;;;;;28.80;77.20;;;;;;5095840;28;19947;-66
2022/07/21 05:57:15;;;;;;;;;;;28.70;77.30;;;;;;5094166;28;19962;-66
2022/07/21 05:59:41;;;;;;;;;;;28.80;77.30;;;;;;5076344;28;19920;-67
2022/07/21 06:02:07;;;;;;;;;;;28.80;77.10;;;;;;5095086;28;20377;-69
2022/07/21 06:04:32;;;;;;;;;;;29.00;76.50;;;;;;5096019;28;19976;-67
2022/07/21 06:06:58;;;;;;;;;;;28.80;76.70;;;;;;5096539;28;19919;-67
2022/07/21 06:09:24;;;;;;;;;;;28.80;77.10;;;;;;5096997;28;19924;-66
2022/07/21 06:11:49;;;;;;;;;;;29.10;77.20;;;;;;5095940;28;20293;-66
2022/07/21 06:14:15;;;;;;;;;;;28.60;76.90;;;;;;5095954;28;19920;-67
2022/07/21 06:16:40;;;;;;;;;;;28.70;76.90;;;;;;5095774;28;19920;-67
2022/07/21 06:19:09;;;;;;;;;;;29.10;77.40;;;;;;5094196;28;19920;-67
2022/07/21 06:21:34;;;;;;;;;;;28.90;76.80;;;;;;5075965;28;19927;-64
2022/07/21 06:24:00;;;;;;;;;;;28.70;77.90;;;;;;5093477;28;19920;-63
2022/07/21 06:26:26;;;;;;;;;;;28.90;78.60;;;;;;5064538;28;19927;-73
2022/07/21 06:28:51;;;;;;;;;;;28.70;79.10;;;;;;5091128;28;19920;-66
2022/07/21 06:31:17;;;;;;;;;;;28.40;79.30;;;;;;5059734;28;19921;-64
2022/07/21 06:33:43;;;;;;;;;;;28.40;79.70;;;;;;5061806;28;19932;-63
2022/07/21 06:36:08;;;;;;;;;;;28.20;79.90;;;;;;5061827;28;19927;-70
2022/07/21 06:38:34;;;;;;;;;;;28.00;80.30;;;;;;5055841;28;19929;-64
2022/07/21 06:41:00;;;;;;;;;;;27.70;80.70;;;;;;5046221;28;20374;-64
2022/07/21 06:43:25;;;;;;;;;;;27.70;81.30;;;;;;5076072;28;20277;-64
2022/07/21 06:45:51;;;;;;;;;;;27.50;81.90;;;;;;5073026;28;20363;-63
2022/07/21 06:48:16;;;;;;;;;;;27.40;82.40;;;;;;5066781;28;20011;-63
2022/07/21 06:50:42;;;;;;;;;;;27.20;83.10;;;;;;5064937;28;19932;-63
2022/07/21 06:53:08;;;;;;;;;;;26.90;83.60;;;;;;5072300;28;19924;-63
2022/07/21 06:55:33;;;;;;;;;;;26.80;83.70;;;;;;5057628;28;19990;-63
2022/07/21 06:58:07;;;;;;;;;;;26.60;84.30;;;;;;5060239;28;19929;-63
2022/07/21 07:00:34;;;;;;;;;;;26.60;84.90;;;;;;5062557;28;19927;-65
2022/07/21 07:03:00;;;;;;;;;;;26.50;84.70;;;;;;5068623;28;21510;-65
2022/07/21 07:05:28;;;;;;;;;;;26.60;85.40;;;;;;5070001;28;19921;-64
2022/07/21 07:07:53;;;;;;;;;;;26.40;85.80;;;;;;5075146;28;20058;-62
2022/07/21 07:10:19;;;;;;;;;;;26.50;85.60;;;;;;5074689;28;19978;-71
2022/07/21 07:12:45;;;;;;;;;;;26.60;86.40;;;;;;5066086;28;20412;-64
2022/07/21 07:15:10;;;;;;;;;;;26.60;86.50;;;;;;5074675;28;19920;-64
2022/07/21 07:17:36;;;;;;;;;;;26.40;86.60;;;;;;5074735;28;19917;-65
2022/07/21 07:20:03;;;;;;;;;;;26.50;86.30;;;;;;5074974;28;19920;-64
2022/07/21 07:22:29;;;;;;;;;;;26.40;86.30;;;;;;5075372;28;19921;-65
2022/07/21 07:24:54;;;;;;;;;;;26.40;86.10;;;;;;5072624;28;19927;-66
2022/07/21 07:27:20;;;;;;;;;;;26.40;86.00;;;;;;5074762;28;20350;-73
2022/07/21 07:29:46;;;;;;;;;;;26.60;85.90;;;;;;5074227;28;19924;-74
2022/07/21 07:32:11;;;;;;;;;;;26.50;85.80;;;;;;5094696;28;19920;-66
2022/07/21 07:34:37;;;;;;;;;;;26.90;86.10;;;;;;5094405;28;19927;-67
2022/07/21 07:37:03;;;;;;;;;;;26.80;85.80;;;;;;5095094;28;19920;-67
2022/07/21 07:39:31;;;;;;;;;;;26.80;86.00;;;;;;5094323;28;19927;-62
2022/07/21 07:41:58;;;;;;;;;;;26.80;85.90;;;;;;5076538;28;20369;-62
2022/07/21 07:44:25;;;;;;;;;;;26.60;85.50;;;;;;5094760;28;19920;-62
2022/07/21 07:46:50;;;;;;;;;;;26.60;86.50;;;;;;5092305;28;19945;-62
2022/07/21 07:49:16;;;;;;;;;;;26.30;86.50;;;;;;5081607;28;20056;-62
2022/07/21 07:51:42;;;;;;;;;;;26.60;87.00;;;;;;5093988;28;20391;-68
2022/07/21 07:54:10;;;;;;;;;;;26.50;87.10;;;;;;5094538;28;20332;-62
2022/07/21 07:56:37;;;;;;;;;;;26.40;86.10;;;;;;5093517;28;19920;-62
2022/07/21 07:59:02;;;;;;;;;;;25.90;86.70;;;;;;5093284;28;20113;-62
2022/07/21 08:01:28;;;;;;;;;;;26.20;87.00;;;;;;5094887;28;19995;-62
2022/07/21 08:03:54;;;;;;;;;;;26.10;86.90;;;;;;5094252;28;19920;-62
2022/07/21 08:06:19;;;;;;;;;;;26.10;87.00;;;;;;5094633;28;19977;-62
2022/07/21 08:08:45;;;;;;;;;;;26.20;87.40;;;;;;5093446;28;19926;-62
2022/07/21 08:11:13;;;;;;;;;;;26.20;87.60;;;;;;5092692;28;19986;-62
2022/07/21 08:13:38;;;;;;;;;;;26.00;87.80;;;;;;5076497;28;19966;-62
2022/07/21 08:16:04;;;;;;;;;;;26.00;88.00;;;;;;5075990;28;20377;-62
2022/07/21 08:18:30;;;;;;;;;;;26.20;88.00;;;;;;5076113;28;19924;-62
2022/07/21 08:20:55;;;;;;;;;;;25.90;88.10;;;;;;5093117;28;19920;-63
2022/07/21 08:23:21;;;;;;;;;;;25.80;88.70;;;;;;5075968;28;20403;-62
2022/07/21 08:25:47;;;;;;;;;;;25.70;88.80;;;;;;5094261;28;19927;-69
2022/07/21 08:28:12;;;;;;;;;;;25.50;88.90;;;;;;5094340;28;19927;-62
2022/07/21 08:30:38;;;;;;;;;;;25.70;89.00;;;;;;5092140;28;19932;-61
2022/07/21 08:33:04;;;;;;;;;;;25.80;89.40;;;;;;5074937;28;19923;-63
2022/07/21 08:35:29;;;;;;;;;;;25.40;89.30;;;;;;5075172;28;19930;-62
2022/07/21 08:37:59;;;;;;;;;;;25.40;89.70;;;;;;5074150;28;20317;-62
2022/07/21 08:40:25;;;;;;;;;;;25.60;88.90;;;;;;5073827;28;19959;-61
2022/07/21 08:42:51;;;;;;;;;;;25.70;90.20;;;;;;5056886;28;19962;-62
2022/07/21 08:45:17;;;;;;;;;;;25.70;90.10;;;;;;5076044;28;19926;-62
2022/07/21 08:47:42;;;;;;;;;;;25.90;90.00;;;;;;5093319;28;19923;-61
2022/07/21 08:50:08;;;;;;;;;;;25.80;90.00;;;;;;5094500;28;20338;-62
2022/07/21 08:52:34;;;;;;;;;;;26.10;90.40;;;;;;5094124;28;19979;-62
2022/07/21 08:55:00;;;;;;;;;;;26.10;90.20;;;;;;5093375;28;19947;-61
2022/07/21 08:57:25;;;;;;;;;;;25.70;90.30;;;;;;5093585;28;19920;-62
2022/07/21 08:59:51;;;;;;;;;;;26.20;90.10;;;;;;5093963;28;19927;-62
2022/07/21 09:02:33;;;;;;;;;;;25.90;90.00;;;;;;5094055;28;19920;-62
2022/07/21 09:04:59;;;;;;;;;;;26.10;89.10;;;;;;5090226;28;19943;-62
2022/07/21 09:07:24;;;;;;;;;;;26.20;90.30;;;;;;5093583;28;20370;-62
2022/07/21 09:09:57;;;;;;;;;;;26.20;90.20;;;;;;5093656;28;19920;-62
2022/07/21 09:12:22;;;;;;;;;;;26.60;89.30;;;;;;5092380;28;19923;-69
2022/07/21 09:14:49;;;;;;;;;;;26.50;90.10;;;;;;5065325;28;19931;-73
2022/07/21 09:17:15;;;;;;;;;;;26.80;89.90;;;;;;5075732;28;19919;-72
2022/07/21 09:19:45;;;;;;;;;;;26.80;89.90;;;;;;5075742;28;19927;-72
2022/07/21 09:22:12;;;;;;;;;;;27.00;89.60;;;;;;5075858;28;19926;-72
2022/07/21 09:24:39;;;;;;;;;;;27.30;89.30;;;;;;5093682;28;19920;-62
2022/07/21 09:27:05;;;;;;;;;;;27.20;88.20;;;;;;5074832;28;19920;-62
2022/07/21 09:29:50;;;;;;;;;;;27.50;87.60;;;;;;5097320;28;19920;-62
2022/07/21 09:32:18;;;;;;;;;;;27.10;85.40;;;;;;5097133;28;19927;-63
2022/07/21 09:34:44;;;;;;;;;;;27.80;85.70;;;;;;5078631;28;19920;-62
2022/07/21 09:37:10;;;;;;;;;;;27.50;86.50;;;;;;5078479;28;20377;-62
2022/07/21 09:39:46;;;;;;;;;;;27.40;86.10;;;;;;5097884;28;19920;-62
2022/07/21 09:42:30;;;;;;;;;;;27.40;85.30;;;;;;5097182;28;19982;-63
2022/07/21 09:44:58;;;;;;;;;;;27.50;84.80;;;;;;5078599;28;20370;-62
2022/07/21 09:47:25;;;;;;;;;;;27.60;86.60;;;;;;5096867;28;19920;-62
2022/07/21 09:49:50;;;;;;;;;;;27.10;86.10;;;;;;5097394;28;19927;-62
2022/07/21 09:52:23;;;;;;;;;;;27.10;85.90;;;;;;5097277;28;20365;-62
2022/07/21 09:54:50;;;;;;;;;;;27.50;85.20;;;;;;5095903;28;20444;-62
2022/07/21 09:57:16;;;;;;;;;;;27.30;86.70;;;;;;5091452;28;19931;-63
2022/07/21 09:59:44;;;;;;;;;;;27.50;86.50;;;;;;5060213;28;19920;-65
2022/07/21 10:02:17;;;;;;;;;;;27.30;84.90;;;;;;5076887;28;19920;-65
2022/07/21 10:04:45;;;;;;;;;;;27.40;84.90;;;;;;5083180;28;20440;-65
2022/07/21 10:07:10;;;;;;;;;;;27.00;85.80;;;;;;5078095;28;19942;-66
2022/07/21 10:09:36;;;;;;;;;;;27.30;85.90;;;;;;5078625;28;19920;-65
2022/07/21 10:12:01;;;;;;;;;;;27.10;85.40;;;;;;5078915;28;19919;-65
2022/07/21 10:14:27;;;;;;;;;;;27.30;85.50;;;;;;5061877;28;19920;-66
2022/07/21 10:16:53;;;;;;;;;;;27.00;85.40;;;;;;5095596;28;19920;-66
2022/07/21 10:19:25;;;;;;;;;;;26.90;85.60;;;;;;5077930;28;19927;-65
2022/07/21 10:22:16;;;;;;;;;;;27.20;84.70;;;;;;5096609;28;20289;-66
2022/07/21 10:24:42;;;;;;;;;;;26.90;84.60;;;;;;5065017;28;19923;-69
2022/07/21 10:27:11;;;;;;;;;;;27.10;86.00;;;;;;5077882;28;19992;-70
2022/07/21 10:29:52;;;;;;;;;;;27.00;85.20;;;;;;5095825;28;19922;-70
2022/07/21 10:32:19;;;;;;;;;;;26.90;85.10;;;;;;5077385;28;20349;-71
2022/07/21 10:34:44;;;;;;;;;;;27.00;86.40;;;;;;5077319;28;19971;-70
2022/07/21 10:37:10;;;;;;;;;;;27.00;86.20;;;;;;5078399;28;20060;-69
2022/07/21 10:39:36;;;;;;;;;;;26.90;86.40;;;;;;5094555;28;20011;-70
2022/07/21 10:42:13;;;;;;;;;;;27.00;86.40;;;;;;5095951;28;19967;-70
2022/07/21 10:44:38;;;;;;;;;;;26.80;86.00;;;;;;5077275;28;19926;-70
2022/07/21 10:47:05;;;;;;;;;;;26.60;85.60;;;;;;5078013;28;20014;-70
2022/07/21 10:49:42;;;;;;;;;;;26.90;86.10;;;;;;5090968;28;19959;-69
2022/07/21 10:52:27;;;;;;;;;;;26.90;84.70;;;;;;5077011;28;19927;-69
2022/07/21 10:55:32;;;;;;;;;;;27.00;84.80;;;;;;5094008;28;20265;-70
2022/07/21 10:58:15;;;;;;;;;;;27.10;84.90;;;;;;5094175;28;19989;-70
2022/07/21 11:00:56;;;;;;;;;;;26.90;84.60;;;;;;5093726;28;20404;-70
2022/07/21 11:03:26;;;;;;;;;;;26.90;84.50;;;;;;5095779;28;20281;-70
2022/07/21 11:06:10;;;;;;;;;;;27.00;84.40;;;;;;5095854;28;19942;-70
2022/07/21 11:08:46;;;;;;;;;;;26.90;84.20;;;;;;5094409;28;20033;-65
2022/07/21 11:11:18;;;;;;;;;;;27.00;84.20;;;;;;5095052;28;19927;-62
2022/07/21 11:14:02;;;;;;;;;;;27.40;84.50;;;;;;5077599;28;20022;-62
2022/07/21 11:16:52;;;;;;;;;;;27.20;84.30;;;;;;5077523;28;20014;-62
2022/07/21 11:19:39;;;;;;;;;;;27.00;84.10;;;;;;5077602;28;20294;-62
2022/07/21 11:22:11;;;;;;;;;;;27.40;84.30;;;;;;5093420;28;19926;-63
2022/07/21 11:24:37;;;;;;;;;;;27.20;84.30;;;;;;5094675;28;19973;-62
2022/07/21 11:27:04;;;;;;;;;;;27.00;85.60;;;;;;5077410;28;20308;-61
2022/07/21 11:29:30;;;;;;;;;;;26.80;85.40;;;;;;5095433;28;19969;-62
2022/07/21 11:31:56;;;;;;;;;;;27.00;85.40;;;;;;5087844;28;19932;-62
2022/07/21 11:34:22;;;;;;;;;;;26.90;85.90;;;;;;5073155;28;19919;-62
2022/07/21 11:36:48;;;;;;;;;;;26.60;85.80;;;;;;5093565;28;19920;-62
2022/07/21 11:39:15;;;;;;;;;;;26.60;86.10;;;;;;5076865;28;20404;-62
2022/07/21 11:41:41;;;;;;;;;;;26.40;86.30;;;;;;5060602;28;19920;-62
2022/07/21 11:44:07;;;;;;;;;;;26.70;86.60;;;;;;5095252;28;20025;-63
2022/07/21 11:46:48;;;;;;;;;;;26.20;86.30;;;;;;5092945;28;20400;-62
2022/07/21 11:49:14;;;;;;;;;;;26.20;85.90;;;;;;5076774;28;19920;-63
2022/07/21 11:52:06;;;;;;;;;;;26.40;87.20;;;;;;5090894;28;19927;-62
2022/07/21 11:54:36;;;;;;;;;;;26.20;86.00;;;;;;5090546;28;19919;-62
2022/07/21 11:57:03;;;;;;;;;;;26.20;86.60;;;;;;5076079;28;19920;-62
2022/07/21 11:59:29;;;;;;;;;;;26.30;88.30;;;;;;5094836;28;19959;-63
2022/07/21 12:01:55;;;;;;;;;;;26.10;87.90;;;;;;5094970;28;19966;-62
2022/07/21 12:04:27;;;;;;;;;;;26.00;88.00;;;;;;5080808;28;19974;-63
2022/07/21 12:06:52;;;;;;;;;;;26.10;87.00;;;;;;5091865;28;20438;-63
2022/07/21 12:09:18;;;;;;;;;;;26.20;88.50;;;;;;5059654;28;20018;-62
2022/07/21 12:11:43;;;;;;;;;;;26.10;88.80;;;;;;5094575;28;19974;-64
2022/07/21 12:14:09;;;;;;;;;;;26.10;89.60;;;;;;5073849;28;21014;-62
2022/07/21 12:16:46;;;;;;;;;;;26.00;89.50;;;;;;5093431;28;19920;-63
2022/07/21 12:19:14;;;;;;;;;;;26.10;90.00;;;;;;5059312;28;19973;-61
2022/07/21 12:21:47;;;;;;;;;;;26.20;89.80;;;;;;5072712;28;19921;-62
2022/07/21 12:24:13;;;;;;;;;;;26.30;88.50;;;;;;5067761;28;19926;-62
2022/07/21 12:26:38;;;;;;;;;;;26.40;89.60;;;;;;5075834;28;20413;-62
2022/07/21 12:29:04;;;;;;;;;;;26.60;89.90;;;;;;5094476;28;20287;-62
2022/07/21 12:31:31;;;;;;;;;;;26.40;89.70;;;;;;5094080;28;19920;-62
2022/07/21 12:33:57;;;;;;;;;;;26.40;89.70;;;;;;5092036;28;19920;-74
2022/07/21 12:36:23;;;;;;;;;;;26.60;89.30;;;;;;5093763;28;19920;-73
2022/07/21 12:38:49;;;;;;;;;;;26.80;89.30;;;;;;5075018;28;19931;-74
2022/07/21 12:41:15;;;;;;;;;;;27.00;89.10;;;;;;5075773;28;19926;-62
2022/07/21 12:43:41;;;;;;;;;;;27.00;89.10;;;;;;5094260;28;19924;-62
2022/07/21 12:46:18;;;;;;;;;;;27.00;88.60;;;;;;5093257;28;20373;-62
2022/07/21 12:48:44;;;;;;;;;;;27.30;87.30;;;;;;5069450;28;20010;-61
2022/07/21 12:51:09;;;;;;;;;;;27.00;88.00;;;;;;5056075;28;20369;-63
2022/07/21 12:53:36;;;;;;;;;;;27.10;88.10;;;;;;5056842;28;19974;-63
2022/07/21 12:56:02;;;;;;;;;;;27.20;88.60;;;;;;5058994;28;19920;-63
2022/07/21 12:58:28;;;;;;;;;;;27.50;88.40;;;;;;5073745;28;19927;-63
2022/07/21 13:00:54;;;;;;;;;;;27.50;88.30;;;;;;5074572;28;20396;-63
2022/07/21 13:03:20;;;;;;;;;;;27.40;88.20;;;;;;5094598;28;19974;-63
2022/07/21 13:05:45;;;;;;;;;;;27.40;87.40;;;;;;5097245;28;20418;-64
2022/07/21 13:08:11;;;;;;;;;;;27.40;87.50;;;;;;5096226;28;19926;-63
2022/07/21 13:10:37;;;;;;;;;;;27.60;87.60;;;;;;5095798;28;19920;-63
2022/07/21 13:13:02;;;;;;;;;;;27.60;87.40;;;;;;5075997;28;19971;-63
2022/07/21 13:15:28;;;;;;;;;;;27.60;87.00;;;;;;5084127;28;19973;-63
2022/07/21 13:17:54;;;;;;;;;;;27.50;86.60;;;;;;5078921;28;19928;-64
2022/07/21 13:20:19;;;;;;;;;;;27.60;86.70;;;;;;5077695;28;19920;-70
2022/07/21 13:22:45;;;;;;;;;;;27.80;86.60;;;;;;5062364;28;19920;-64
2022/07/21 13:25:11;;;;;;;;;;;27.80;86.00;;;;;;5080001;28;19973;-63
2022/07/21 13:27:37;;;;;;;;;;;27.70;86.00;;;;;;5097764;28;19924;-63
2022/07/21 13:30:03;;;;;;;;;;;27.90;85.60;;;;;;5078926;28;19920;-63
2022/07/21 13:32:30;;;;;;;;;;;27.90;85.70;;;;;;5077275;28;19977;-63
2022/07/21 13:34:56;;;;;;;;;;;28.00;85.90;;;;;;5097331;28;19927;-62
2022/07/21 13:37:22;;;;;;;;;;;27.90;85.40;;;;;;5098019;28;19920;-62
2022/07/21 13:39:48;;;;;;;;;;;28.20;85.90;;;;;;5079474;28;19927;-62
2022/07/21 13:42:14;;;;;;;;;;;27.80;85.10;;;;;;5096420;28;19920;-62
2022/07/21 13:44:40;;;;;;;;;;;28.30;85.20;;;;;;5079433;28;19915;-62
2022/07/21 13:47:07;;;;;;;;;;;28.20;84.60;;;;;;5097075;28;19973;-62
2022/07/21 13:49:33;;;;;;;;;;;28.20;84.20;;;;;;5096929;28;19920;-62
2022/07/21 13:51:59;;;;;;;;;;;28.20;84.50;;;;;;5096773;28;19947;-64
2022/07/21 13:54:24;;;;;;;;;;;28.50;84.30;;;;;;5097026;28;19926;-62
2022/07/21 13:56:50;;;;;;;;;;;28.10;84.30;;;;;;5097282;28;20336;-62
2022/07/21 13:59:16;;;;;;;;;;;28.30;84.50;;;;;;5097245;28;20297;-62
2022/07/21 14:01:42;;;;;;;;;;;28.50;84.40;;;;;;5097229;28;19946;-62
2022/07/21 14:04:08;;;;;;;;;;;28.10;84.20;;;;;;5096812;28;20369;-62
2022/07/21 14:06:33;;;;;;;;;;;28.30;85.20;;;;;;5078408;28;19927;-62
2022/07/21 14:08:59;;;;;;;;;;;28.30;84.40;;;;;;5078910;28;19930;-62
2022/07/21 14:11:27;;;;;;;;;;;28.10;84.20;;;;;;5096970;28;19927;-62
2022/07/21 14:13:53;;;;;;;;;;;28.40;84.50;;;;;;5078083;28;19928;-62
2022/07/21 14:16:18;;;;;;;;;;;28.30;84.40;;;;;;5096950;28;20292;-63
2022/07/21 14:18:44;;;;;;;;;;;28.40;84.60;;;;;;5095694;28;19927;-62